Terminal Aerodrome Forecast
Issued by NWS Knoxville/Tri Cities, TN

Home | Current Version | Previous Version | Text Only | Print | Product List | Glossary On
Versions: 1 2 3 4 5 6 7 8 9 10 11 12 13 14 15 16 17 18 19 20 21 22 23 24 25 26 27 28 29
000
FTUS44 KMRX 041729
TAFTRI
TAF
KTRI 041729Z 0418/0518 05003KT P6SM SCT045
     FM050100 06002KT P6SM SCT250
     FM050600 00000KT 3SM BR SKC
     FM051300 12003KT P6SM SCT250=

USA.gov is the U.S. government's official web portal to all federal, state and local government web resources and services.